Time;durP1;ratioP1;P1;durP2;ratioP2;P2;SDS_P1;SDS_P2;PMS_P1;PMS_P2;Temp;Humidity;BMP_temperature;BMP_pressure;BME280_temperature;BME280_humidity;BME280_pressure;Samples;Min_cycle;Max_cycle;Signal;HPM_P1;HPM_P2
2022/05/11 00:01:18;;;;;;;7.68;2.78;;;;;;;;;;5086626;28;20032;-74
2022/05/11 00:03:44;;;;;;;5.15;1.95;;;;;;;;;;5086492;28;20524;-74
2022/05/11 00:06:10;;;;;;;5.72;2.20;;;;;;;;;;5086725;28;20044;-74
2022/05/11 00:08:36;;;;;;;5.78;2.30;;;;;;;;;;5086609;28;20133;-74
2022/05/11 00:11:04;;;;;;;6.05;2.42;;;;;;;;;;5086751;28;20040;-74
2022/05/11 00:13:30;;;;;;;4.50;1.98;;;;;;;;;;5069706;28;20040;-74
2022/05/11 00:15:56;;;;;;;5.68;2.38;;;;;;;;;;5081142;28;20071;-74
2022/05/11 00:18:22;;;;;;;5.20;2.20;;;;;;;;;;5049664;28;20119;-74
2022/05/11 00:20:48;;;;;;;5.22;2.15;;;;;;;;;;5065890;28;20128;-74
2022/05/11 00:23:14;;;;;;;5.78;2.15;;;;;;;;;;5065947;28;20048;-74
2022/05/11 00:25:40;;;;;;;6.35;2.35;;;;;;;;;;5065710;28;20040;-74
2022/05/11 00:28:06;;;;;;;5.20;2.20;;;;;;;;;;5066030;28;20110;-74
2022/05/11 00:30:33;;;;;;;5.07;1.98;;;;;;;;;;5066187;28;20726;-74
2022/05/11 00:33:00;;;;;;;6.45;2.35;;;;;;;;;;5048964;28;20063;-74
2022/05/11 00:35:28;;;;;;;6.10;2.03;;;;;;;;;;5048819;28;20049;-75
2022/05/11 00:37:54;;;;;;;4.63;2.13;;;;;;;;;;5065733;28;20523;-75
2022/05/11 00:40:20;;;;;;;5.22;1.92;;;;;;;;;;5071400;28;20040;-74
2022/05/11 00:42:46;;;;;;;5.45;2.13;;;;;;;;;;5048672;28;20073;-74
2022/05/11 00:45:12;;;;;;;7.05;2.30;;;;;;;;;;5051747;28;20850;-74
2022/05/11 00:47:40;;;;;;;4.65;2.15;;;;;;;;;;5085813;28;20044;-74
2022/05/11 00:50:20;;;;;;;4.80;2.00;;;;;;;;;;5085429;28;20579;-74
2022/05/11 00:52:55;;;;;;;7.68;2.25;;;;;;;;;;5085677;28;20105;-74
2022/05/11 00:55:26;;;;;;;5.45;2.17;;;;;;;;;;5085739;28;20603;-74
2022/05/11 00:57:57;;;;;;;5.68;2.08;;;;;;;;;;5068966;28;20046;-74
2022/05/11 01:00:24;;;;;;;4.68;1.70;;;;;;;;;;5071106;28;20120;-74
2022/05/11 01:03:20;;;;;;;5.07;2.08;;;;;;;;;;5050439;28;20072;-74
2022/05/11 01:05:47;;;;;;;4.28;1.70;;;;;;;;;;5032119;28;20378;-74
2022/05/11 01:08:13;;;;;;;4.75;2.22;;;;;;;;;;5048358;28;20041;-74
2022/05/11 01:10:40;;;;;;;5.85;2.40;;;;;;;;;;5048353;28;20036;-74
2022/05/11 01:13:08;;;;;;;5.38;2.17;;;;;;;;;;5065329;28;20047;-74
2022/05/11 01:15:35;;;;;;;5.18;2.08;;;;;;;;;;5049342;28;20658;-74
2022/05/11 01:18:05;;;;;;;4.50;2.03;;;;;;;;;;5066151;28;20039;-74
2022/05/11 01:20:33;;;;;;;4.30;1.95;;;;;;;;;;5065460;28;20048;-74
2022/05/11 01:23:00;;;;;;;5.18;2.00;;;;;;;;;;5049312;28;20393;-74
2022/05/11 01:25:26;;;;;;;4.45;2.00;;;;;;;;;;5065732;28;20051;-74
2022/05/11 01:28:00;;;;;;;5.20;2.15;;;;;;;;;;5065296;28;20044;-74
2022/05/11 01:30:26;;;;;;;5.43;2.25;;;;;;;;;;5048709;28;20044;-73
2022/05/11 01:32:53;;;;;;;5.38;2.20;;;;;;;;;;5064439;28;20071;-74
2022/05/11 01:35:48;;;;;;;5.35;2.13;;;;;;;;;;5064800;28;20619;-73
2022/05/11 01:38:30;;;;;;;5.05;1.98;;;;;;;;;;5051835;28;20045;-74
2022/05/11 01:40:56;;;;;;;4.20;1.98;;;;;;;;;;5048004;28;20041;-74
2022/05/11 01:43:24;;;;;;;5.45;2.10;;;;;;;;;;5064713;28;20048;-74
2022/05/11 01:45:51;;;;;;;4.30;2.17;;;;;;;;;;5065005;28;20138;-74
2022/05/11 01:48:17;;;;;;;4.55;1.90;;;;;;;;;;5064689;28;20752;-74
2022/05/11 01:50:44;;;;;;;4.88;1.95;;;;;;;;;;5064551;28;20127;-74
2022/05/11 01:53:10;;;;;;;4.35;1.90;;;;;;;;;;5063928;28;20044;-74
2022/05/11 01:55:36;;;;;;;6.32;2.08;;;;;;;;;;5064768;28;20051;-74
2022/05/11 01:58:03;;;;;;;5.50;2.03;;;;;;;;;;5047094;28;20047;-75
2022/05/11 02:00:30;;;;;;;4.97;2.03;;;;;;;;;;5064504;28;20524;-74
2022/05/11 02:02:56;;;;;;;4.60;2.00;;;;;;;;;;5047505;28;20048;-74
2022/05/11 02:08:06;;;;;;;;;;;;;;;;;;5064637;28;20045;-74
2022/05/11 02:10:33;;;;;;;4.43;2.03;;;;;;;;;;5049484;28;19944;-74
2022/05/11 02:12:59;;;;;;;4.85;1.92;;;;;;;;;;5044980;28;20041;-75
2022/05/11 02:15:26;;;;;;;5.32;2.08;;;;;;;;;;5049545;28;20561;-75
2022/05/11 02:17:53;;;;;;;4.78;1.65;;;;;;;;;;5058160;28;20048;-74
2022/05/11 02:20:19;;;;;;;4.38;1.90;;;;;;;;;;5046635;28;20483;-74
2022/05/11 02:22:46;;;;;;;4.35;2.10;;;;;;;;;;5047325;28;20044;-74
2022/05/11 02:25:13;;;;;;;4.07;1.80;;;;;;;;;;5064191;28;20044;-74
2022/05/11 02:27:39;;;;;;;5.32;1.95;;;;;;;;;;5047304;28;20186;-73
2022/05/11 02:30:09;;;;;;;3.88;1.70;;;;;;;;;;5047019;28;20063;-74
2022/05/11 02:32:35;;;;;;;5.10;1.98;;;;;;;;;;5063744;28;20033;-74
2022/05/11 02:35:13;;;;;;;4.45;1.88;;;;;;;;;;5063056;28;20397;-74
2022/05/11 02:37:43;;;;;;;4.93;1.80;;;;;;;;;;5063945;28;20472;-74
2022/05/11 02:40:10;;;;;;;4.22;2.20;;;;;;;;;;5063322;28;20045;-75
2022/05/11 02:42:37;;;;;;;4.80;1.90;;;;;;;;;;5063935;28;20036;-74
2022/05/11 02:45:03;;;;;;;4.88;1.90;;;;;;;;;;5033186;28;20075;-74
2022/05/11 02:47:29;;;;;;;4.18;1.80;;;;;;;;;;5050292;28;20628;-74
2022/05/11 02:49:55;;;;;;;4.22;1.70;;;;;;;;;;5026536;28;20041;-74
2022/05/11 02:52:21;;;;;;;5.97;2.13;;;;;;;;;;5044394;28;20098;-74
2022/05/11 02:54:48;;;;;;;4.38;1.88;;;;;;;;;;5026997;28;20570;-74
2022/05/11 02:57:16;;;;;;;4.28;1.60;;;;;;;;;;5043473;28;20428;-74
2022/05/11 02:59:42;;;;;;;4.63;1.75;;;;;;;;;;5042979;28;20052;-74
2022/05/11 03:02:08;;;;;;;4.50;1.80;;;;;;;;;;5043391;28;20043;-74
2022/05/11 03:04:34;;;;;;;4.50;1.80;;;;;;;;;;5026266;28;20448;-74
2022/05/11 03:07:00;;;;;;;3.60;1.80;;;;;;;;;;5043170;28;20041;-74
2022/05/11 03:09:26;;;;;;;3.67;1.63;;;;;;;;;;5046927;28;20044;-74
2022/05/11 03:11:52;;;;;;;4.40;1.60;;;;;;;;;;5054009;28;20130;-74
2022/05/11 03:14:19;;;;;;;4.85;1.95;;;;;;;;;;5045938;28;20029;-74
2022/05/11 03:16:45;;;;;;;4.20;1.70;;;;;;;;;;5046292;28;20071;-74
2022/05/11 03:19:11;;;;;;;3.53;1.60;;;;;;;;;;5045049;28;20029;-74
2022/05/11 03:21:37;;;;;;;3.90;1.70;;;;;;;;;;5046936;28;20037;-74
2022/05/11 03:24:04;;;;;;;4.35;1.85;;;;;;;;;;5062787;28;20084;-74
2022/05/11 03:26:30;;;;;;;4.40;1.50;;;;;;;;;;5062960;28;20041;-74
2022/05/11 03:28:56;;;;;;;3.88;1.70;;;;;;;;;;5046420;28;20109;-74
2022/05/11 03:31:22;;;;;;;4.53;1.73;;;;;;;;;;5048986;28;20738;-74
2022/05/11 03:36:33;;;;;;;4.93;1.98;;;;;;;;;;5065915;28;20055;-74
2022/05/11 03:38:59;;;;;;;4.68;1.60;;;;;;;;;;5065669;28;20493;-74
2022/05/11 03:41:25;;;;;;;5.53;2.08;;;;;;;;;;5065523;28;20041;-74
2022/05/11 03:43:51;;;;;;;4.95;1.80;;;;;;;;;;5048610;28;20731;-74
2022/05/11 03:46:17;;;;;;;3.40;1.63;;;;;;;;;;5048961;28;20061;-74
2022/05/11 03:48:43;;;;;;;4.00;1.50;;;;;;;;;;5065186;28;20065;-75
2022/05/11 03:51:10;;;;;;;5.43;2.10;;;;;;;;;;5065332;28;20405;-74
2022/05/11 03:53:37;;;;;;;4.00;1.70;;;;;;;;;;5048576;28;20040;-74
2022/05/11 03:56:03;;;;;;;3.88;1.50;;;;;;;;;;5065172;28;20048;-74
2022/05/11 03:58:29;;;;;;;4.00;1.60;;;;;;;;;;5065221;28;20036;-74
2022/05/11 04:00:55;;;;;;;4.85;1.75;;;;;;;;;;5048831;28;20040;-74
2022/05/11 04:03:21;;;;;;;3.97;1.80;;;;;;;;;;5064926;28;20059;-74
2022/05/11 04:05:47;;;;;;;4.65;1.95;;;;;;;;;;5047771;28;20615;-74
2022/05/11 04:08:13;;;;;;;4.72;1.92;;;;;;;;;;5048304;28;20048;-74
2022/05/11 04:10:39;;;;;;;4.85;1.80;;;;;;;;;;5065447;28;20520;-74
2022/05/11 04:13:06;;;;;;;4.05;1.63;;;;;;;;;;5064744;28;20123;-74
2022/05/11 04:15:32;;;;;;;4.22;1.73;;;;;;;;;;5063457;28;20044;-74
2022/05/11 04:17:58;;;;;;;4.30;1.85;;;;;;;;;;5044891;28;20036;-75
2022/05/11 04:20:24;;;;;;;3.40;1.73;;;;;;;;;;5028031;28;20540;-74
2022/05/11 04:22:50;;;;;;;4.13;1.70;;;;;;;;;;5044942;28;20130;-74
2022/05/11 04:25:17;;;;;;;3.47;1.48;;;;;;;;;;5044550;28;20056;-74
2022/05/11 04:27:45;;;;;;;3.45;1.50;;;;;;;;;;5028325;28;20091;-74
2022/05/11 04:30:11;;;;;;;4.85;1.50;;;;;;;;;;5028290;28;20072;-74
2022/05/11 04:32:37;;;;;;;4.30;1.77;;;;;;;;;;5016685;28;1065186;-73
2022/05/11 04:35:04;;;;;;;4.45;1.55;;;;;;;;;;5085320;28;20051;-74
2022/05/11 04:37:30;;;;;;;5.22;1.98;;;;;;;;;;5069554;28;20067;-74
2022/05/11 04:39:56;;;;;;;5.05;1.70;;;;;;;;;;5071095;28;20129;-74
2022/05/11 04:42:22;;;;;;;5.15;1.92;;;;;;;;;;5065307;28;20051;-74
2022/05/11 04:44:48;;;;;;;4.38;1.80;;;;;;;;;;5048822;28;20124;-74
2022/05/11 04:47:15;;;;;;;4.63;1.70;;;;;;;;;;5066016;28;20068;-74
2022/05/11 04:49:42;;;;;;;3.75;1.52;;;;;;;;;;5048651;28;20043;-74
2022/05/11 04:52:17;;;;;;;4.22;1.60;;;;;;;;;;5066103;28;20120;-74
2022/05/11 04:54:44;;;;;;;3.58;1.50;;;;;;;;;;5048761;28;20765;-74
2022/05/11 04:57:11;;;;;;;5.13;1.50;;;;;;;;;;5065983;28;20527;-74
2022/05/11 04:59:40;;;;;;;3.25;1.30;;;;;;;;;;5065839;28;20044;-74
2022/05/11 05:02:06;;;;;;;5.05;1.75;;;;;;;;;;5065802;28;20095;-73
2022/05/11 05:04:33;;;;;;;4.55;1.85;;;;;;;;;;5048405;28;20440;-74
2022/05/11 05:06:59;;;;;;;4.20;1.65;;;;;;;;;;5065716;28;20656;-74
2022/05/11 05:09:25;;;;;;;5.05;1.60;;;;;;;;;;5065210;28;20646;-74
2022/05/11 05:11:52;;;;;;;4.18;1.73;;;;;;;;;;5048503;28;20490;-74
2022/05/11 05:14:18;;;;;;;5.53;1.70;;;;;;;;;;5064785;28;20037;-74
2022/05/11 05:16:44;;;;;;;5.00;1.80;;;;;;;;;;5036478;28;20177;-74
2022/05/11 05:19:11;;;;;;;4.35;1.60;;;;;;;;;;5043732;28;20041;-74
2022/05/11 05:21:37;;;;;;;4.50;1.60;;;;;;;;;;5028432;28;20734;-74
2022/05/11 05:24:04;;;;;;;5.07;1.60;;;;;;;;;;5044547;28;20135;-74
2022/05/11 05:26:30;;;;;;;3.38;1.42;;;;;;;;;;5044929;28;20128;-74
2022/05/11 05:31:40;;;;;;;4.13;1.70;;;;;;;;;;5045309;28;20395;-74
2022/05/11 05:34:06;;;;;;;8.73;1.73;;;;;;;;;;5044520;28;20064;-76
2022/05/11 05:36:36;;;;;;;7.43;1.70;;;;;;;;;;5041706;28;20044;-73
2022/05/11 05:39:03;;;;;;;9.68;1.90;;;;;;;;;;5060280;28;20047;-71
2022/05/11 05:41:29;;;;;;;7.47;2.05;;;;;;;;;;5064563;28;20687;-72
2022/05/11 05:43:56;;;;;;;7.40;2.00;;;;;;;;;;5064475;28;20048;-77
2022/05/11 05:46:22;;;;;;;11.60;2.10;;;;;;;;;;5068079;28;20044;-77
2022/05/11 05:48:49;;;;;;;10.32;2.38;;;;;;;;;;5068485;28;20041;-77
2022/05/11 05:51:15;;;;;;;12.20;2.50;;;;;;;;;;5068379;28;20622;-77
2022/05/11 05:53:41;;;;;;;9.45;2.00;;;;;;;;;;5067059;28;20068;-75
2022/05/11 05:56:08;;;;;;;10.27;2.80;;;;;;;;;;5064059;28;20559;-74
2022/05/11 05:58:35;;;;;;;10.65;2.72;;;;;;;;;;5039155;28;20048;-76
2022/05/11 06:01:01;;;;;;;12.02;2.70;;;;;;;;;;5045026;28;20051;-75
2022/05/11 06:03:28;;;;;;;13.85;3.15;;;;;;;;;;5055843;28;20044;-76
2022/05/11 06:05:54;;;;;;;10.57;2.40;;;;;;;;;;5059262;28;20128;-75
2022/05/11 06:08:21;;;;;;;13.50;3.40;;;;;;;;;;5059335;28;20119;-75
2022/05/11 06:10:47;;;;;;;9.88;2.60;;;;;;;;;;5056244;28;20045;-75
2022/05/11 06:13:14;;;;;;;11.35;2.97;;;;;;;;;;5061552;28;20041;-75
2022/05/11 06:15:41;;;;;;;12.93;3.15;;;;;;;;;;5047131;28;20036;-75
2022/05/11 06:18:08;;;;;;;9.85;2.95;;;;;;;;;;5045035;28;20115;-74
2022/05/11 06:20:34;;;;;;;10.57;2.65;;;;;;;;;;5063612;28;20047;-75
2022/05/11 06:23:01;;;;;;;10.70;2.58;;;;;;;;;;5047550;28;20044;-74
2022/05/11 06:25:27;;;;;;;10.13;2.58;;;;;;;;;;5064168;28;20652;-74
2022/05/11 06:27:53;;;;;;;8.68;2.42;;;;;;;;;;5063645;28;20048;-75
2022/05/11 06:30:19;;;;;;;9.77;3.10;;;;;;;;;;5063933;28;20049;-75
2022/05/11 06:32:45;;;;;;;11.45;2.42;;;;;;;;;;5063697;28;20129;-75
2022/05/11 06:35:11;;;;;;;8.30;2.75;;;;;;;;;;5051720;28;20080;-75
2022/05/11 06:37:40;;;;;;;8.77;2.60;;;;;;;;;;5057511;28;20047;-75
2022/05/11 06:40:07;;;;;;;9.65;2.42;;;;;;;;;;5067679;28;20047;-75
2022/05/11 06:42:33;;;;;;;7.22;2.30;;;;;;;;;;5063800;28;20074;-75
2022/05/11 06:44:59;;;;;;;8.43;2.72;;;;;;;;;;5063778;28;20037;-75
2022/05/11 06:47:25;;;;;;;9.48;2.50;;;;;;;;;;5063776;28;20044;-75
2022/05/11 06:49:51;;;;;;;11.00;2.60;;;;;;;;;;5045402;28;20045;-74
2022/05/11 06:52:17;;;;;;;9.45;2.20;;;;;;;;;;5063379;28;20537;-74
2022/05/11 07:00:14;;;;;;;7.97;2.47;;;;;;;;;;5050149;28;20040;-75
2022/05/11 07:02:40;;;;;;;9.00;2.40;;;;;;;;;;5061056;28;20051;-74
2022/05/11 07:05:06;;;;;;;10.27;2.55;;;;;;;;;;5063312;28;20408;-74
2022/05/11 07:07:32;;;;;;;9.20;2.35;;;;;;;;;;5063298;28;20051;-74
2022/05/11 07:09:58;;;;;;;8.93;2.50;;;;;;;;;;5063536;28;20093;-74
2022/05/11 07:12:32;;;;;;;8.30;2.20;;;;;;;;;;5063345;28;20040;-75
2022/05/11 07:14:59;;;;;;;6.30;2.22;;;;;;;;;;5063700;28;20052;-74
2022/05/11 07:17:31;;;;;;;7.22;2.30;;;;;;;;;;5046742;28;20072;-75
2022/05/11 07:19:58;;;;;;;5.50;2.10;;;;;;;;;;5062815;28;20037;-74
2022/05/11 07:22:24;;;;;;;7.95;1.92;;;;;;;;;;5063745;28;20036;-75
2022/05/11 07:24:50;;;;;;;9.48;2.70;;;;;;;;;;5063335;28;20373;-74
2022/05/11 07:27:17;;;;;;;7.63;2.63;;;;;;;;;;5043618;28;20036;-75
2022/05/11 07:29:43;;;;;;;7.32;2.17;;;;;;;;;;5046682;28;20047;-74
2022/05/11 07:32:10;;;;;;;7.35;2.13;;;;;;;;;;5054087;28;20109;-74
2022/05/11 07:34:36;;;;;;;6.68;2.38;;;;;;;;;;5062519;28;20595;-74
2022/05/11 07:37:02;;;;;;;8.68;2.20;;;;;;;;;;5062907;28;20051;-74
2022/05/11 07:39:28;;;;;;;6.50;2.00;;;;;;;;;;5063033;28;20040;-75
2022/05/11 07:41:58;;;;;;;7.65;2.58;;;;;;;;;;5062998;28;20700;-74
2022/05/11 07:44:25;;;;;;;4.72;1.60;;;;;;;;;;5063149;28;20063;-74
2022/05/11 07:46:51;;;;;;;7.45;2.42;;;;;;;;;;5063257;28;20044;-74
2022/05/11 07:49:18;;;;;;;6.85;2.20;;;;;;;;;;5062806;28;20113;-77
2022/05/11 07:51:45;;;;;;;7.28;2.15;;;;;;;;;;5064808;28;20048;-76
2022/05/11 07:54:12;;;;;;;8.38;2.28;;;;;;;;;;5046538;28;20397;-77
2022/05/11 08:02:08;;;;;;;8.23;2.60;;;;;;;;;;5064327;28;20131;-77
2022/05/11 08:04:34;;;;;;;8.48;2.78;;;;;;;;;;5063879;28;20132;-77
2022/05/11 08:07:00;;;;;;;9.23;2.40;;;;;;;;;;5064303;28;20515;-76
2022/05/11 08:09:26;;;;;;;7.28;3.28;;;;;;;;;;5063749;28;20098;-76
2022/05/11 08:11:54;;;;;;;8.43;2.80;;;;;;;;;;5064427;28;20044;-76
2022/05/11 08:14:20;;;;;;;8.07;2.60;;;;;;;;;;5063739;28;20130;-76
2022/05/11 08:16:47;;;;;;;7.60;2.53;;;;;;;;;;5049780;28;20044;-76
2022/05/11 08:19:13;;;;;;;7.13;2.35;;;;;;;;;;5050317;28;20554;-76
2022/05/11 08:21:41;;;;;;;5.40;2.13;;;;;;;;;;5068381;28;20044;-77
2022/05/11 08:24:07;;;;;;;9.50;2.58;;;;;;;;;;5068506;28;20505;-77
2022/05/11 08:26:33;;;;;;;7.13;2.50;;;;;;;;;;5051797;28;20043;-77
2022/05/11 08:28:59;;;;;;;6.65;2.40;;;;;;;;;;5067745;28;20553;-77
2022/05/11 08:34:09;;;;;;;8.48;2.60;;;;;;;;;;5067224;28;20052;-77
2022/05/11 08:36:36;;;;;;;8.73;2.50;;;;;;;;;;5069103;28;20519;-76
2022/05/11 08:39:04;;;;;;;7.57;2.35;;;;;;;;;;5068491;28;20111;-77
2022/05/11 08:41:30;;;;;;;13.82;2.60;;;;;;;;;;5068488;28;20033;-77
2022/05/11 08:44:08;;;;;;;5.97;2.47;;;;;;;;;;5051579;28;20572;-77
2022/05/11 08:46:43;;;;;;;7.97;2.40;;;;;;;;;;5068517;28;20135;-77
2022/05/11 08:49:43;;;;;;;5.07;2.22;;;;;;;;;;5050654;28;20223;-78
2022/05/11 08:52:25;;;;;;;8.13;2.38;;;;;;;;;;5063964;28;20047;-77
2022/05/11 08:54:55;;;;;;;7.80;2.20;;;;;;;;;;5039155;28;21720;-77
2022/05/11 08:57:25;;;;;;;6.38;2.33;;;;;;;;;;5088324;28;20779;-78
2022/05/11 09:00:04;;;;;;;9.32;2.60;;;;;;;;;;5071363;28;20042;-77
2022/05/11 09:02:56;;;;;;;6.88;2.38;;;;;;;;;;5054875;28;20033;-78
2022/05/11 09:05:26;;;;;;;9.07;2.35;;;;;;;;;;5057100;28;20048;-77
2022/05/11 09:07:53;;;;;;;5.20;1.92;;;;;;;;;;5051273;28;20040;-77
2022/05/11 09:10:30;;;;;;;7.65;1.95;;;;;;;;;;5068259;28;20575;-77
2022/05/11 09:12:57;;;;;;;6.78;2.50;;;;;;;;;;5066538;28;20589;-76
2022/05/11 09:15:43;;;;;;;10.80;2.50;;;;;;;;;;5049283;28;20486;-76
2022/05/11 09:18:11;;;;;;;7.68;2.72;;;;;;;;;;5066668;28;20079;-74
2022/05/11 09:20:37;;;;;;;8.88;2.17;;;;;;;;;;5066596;28;20048;-76
2022/05/11 09:23:03;;;;;;;9.50;2.60;;;;;;;;;;5062159;28;20051;-77
2022/05/11 09:25:36;;;;;;;13.30;2.78;;;;;;;;;;5056499;28;20608;-74
2022/05/11 09:28:20;;;;;;;14.02;2.90;;;;;;;;;;5052578;28;20142;-75
2022/05/11 09:31:19;;;;;;;9.52;2.40;;;;;;;;;;5045616;28;20041;-75
2022/05/11 09:33:59;;;;;;;9.68;3.08;;;;;;;;;;5031749;28;20670;-75
2022/05/11 09:36:36;;;;;;;8.40;2.67;;;;;;;;;;5028557;28;20037;-75
2022/05/11 09:39:16;;;;;;;8.68;2.50;;;;;;;;;;5028407;28;20090;-75
2022/05/11 09:41:45;;;;;;;10.50;2.40;;;;;;;;;;5045596;28;20713;-75
2022/05/11 09:44:21;;;;;;;8.02;2.75;;;;;;;;;;5029516;28;20052;-75
2022/05/11 09:46:47;;;;;;;18.10;3.28;;;;;;;;;;5028956;28;20044;-75
2022/05/11 09:49:25;;;;;;;10.73;3.00;;;;;;;;;;5045111;28;20052;-75
2022/05/11 09:51:54;;;;;;;8.45;2.20;;;;;;;;;;5044977;28;20044;-75
2022/05/11 09:54:38;;;;;;;8.07;2.53;;;;;;;;;;5045576;28;20093;-73
2022/05/11 09:57:13;;;;;;;10.82;2.08;;;;;;;;;;5051362;28;20961;-74
2022/05/11 09:59:41;;;;;;;8.00;2.10;;;;;;;;;;5086185;28;20798;-75
2022/05/11 10:02:25;;;;;;;13.07;2.58;;;;;;;;;;5085301;28;20032;-75
2022/05/11 10:04:55;;;;;;;8.93;2.45;;;;;;;;;;5068299;28;20040;-75
2022/05/11 10:07:22;;;;;;;8.15;2.15;;;;;;;;;;5085055;28;20040;-74
2022/05/11 10:09:53;;;;;;;7.05;2.13;;;;;;;;;;5085146;28;20094;-74
2022/05/11 10:12:22;;;;;;;8.70;2.28;;;;;;;;;;5068822;28;20078;-76
2022/05/11 10:23:23;;;;;;;11.52;2.47;;;;;;;;;;5083552;28;20542;-73
2022/05/11 10:26:12;;;;;;;8.43;2.30;;;;;;;;;;5083362;28;20036;-73
2022/05/11 10:28:57;;;;;;;10.05;2.38;;;;;;;;;;5054063;28;20056;-73
2022/05/11 10:31:56;;;;;;;13.07;2.88;;;;;;;;;;5047177;28;20073;-73
2022/05/11 10:34:28;;;;;;;8.35;2.42;;;;;;;;;;5029104;28;20065;-73
2022/05/11 10:37:08;;;;;;;11.68;3.08;;;;;;;;;;5057833;28;20071;-73
2022/05/11 10:39:56;;;;;;;11.82;2.63;;;;;;;;;;5047822;28;20122;-73
2022/05/11 10:42:36;;;;;;;10.13;2.42;;;;;;;;;;5050195;28;20041;-73
2022/05/11 10:45:09;;;;;;;12.88;3.15;;;;;;;;;;5026533;28;20047;-73
2022/05/11 10:47:38;;;;;;;8.05;2.38;;;;;;;;;;5038340;28;20513;-72
2022/05/11 10:50:23;;;;;;;10.98;2.42;;;;;;;;;;5045286;28;20726;-72
2022/05/11 10:52:55;;;;;;;8.77;2.70;;;;;;;;;;5063005;28;20587;-72
2022/05/11 10:55:31;;;;;;;12.32;2.83;;;;;;;;;;5063472;28;20044;-73
2022/05/11 10:58:16;;;;;;;9.63;2.50;;;;;;;;;;5063966;28;20044;-73
2022/05/11 11:01:00;;;;;;;7.13;1.90;;;;;;;;;;5042380;28;20051;-73
2022/05/11 11:03:45;;;;;;;9.68;2.45;;;;;;;;;;5029662;28;20058;-73
2022/05/11 11:09:16;;;;;;;10.13;2.33;;;;;;;;;;5043139;28;20516;-73
2022/05/11 11:11:47;;;;;;;9.13;2.13;;;;;;;;;;5043886;28;20045;-73
2022/05/11 11:14:16;;;;;;;6.60;2.22;;;;;;;;;;5042498;28;20051;-73
2022/05/11 11:16:42;;;;;;;7.70;2.30;;;;;;;;;;5038142;28;20040;-73
2022/05/11 11:19:09;;;;;;;9.55;2.53;;;;;;;;;;5046056;28;20094;-73
2022/05/11 11:21:39;;;;;;;8.73;2.47;;;;;;;;;;5063296;28;20124;-73
2022/05/11 11:24:17;;;;;;;9.15;2.63;;;;;;;;;;5046651;28;20132;-73
2022/05/11 11:26:57;;;;;;;6.30;2.20;;;;;;;;;;5063321;28;20047;-73
2022/05/11 11:29:23;;;;;;;8.18;2.00;;;;;;;;;;5046270;28;20044;-73
2022/05/11 11:32:01;;;;;;;5.90;1.70;;;;;;;;;;5058679;28;20055;-73
2022/05/11 11:34:34;;;;;;;7.13;2.22;;;;;;;;;;5035674;28;20052;-73
2022/05/11 11:37:20;;;;;;;7.97;2.28;;;;;;;;;;5063237;28;20055;-73
2022/05/11 11:39:48;;;;;;;6.10;2.00;;;;;;;;;;5062862;28;20040;-73
2022/05/11 11:42:28;;;;;;;7.53;2.10;;;;;;;;;;5063669;28;20048;-73
2022/05/11 11:44:55;;;;;;;8.82;2.05;;;;;;;;;;5062817;28;20076;-73
2022/05/11 11:47:27;;;;;;;8.52;2.15;;;;;;;;;;5063222;28;20437;-73
2022/05/11 11:49:57;;;;;;;9.30;2.03;;;;;;;;;;5044393;28;20127;-73
2022/05/11 11:52:44;;;;;;;7.68;2.00;;;;;;;;;;5048498;28;20182;-73
2022/05/11 11:55:16;;;;;;;6.03;1.90;;;;;;;;;;5066596;28;20036;-73
2022/05/11 11:57:42;;;;;;;8.32;2.20;;;;;;;;;;5066516;28;20041;-73
2022/05/11 12:00:31;;;;;;;11.50;2.17;;;;;;;;;;5066692;28;20068;-73
2022/05/11 12:02:59;;;;;;;8.73;2.30;;;;;;;;;;5021946;28;20500;-73
2022/05/11 12:05:28;;;;;;;5.00;1.55;;;;;;;;;;5057579;28;20363;-73
2022/05/11 12:16:09;;;;;;;7.28;1.67;;;;;;;;;;5057500;28;20503;-73
2022/05/11 12:18:37;;;;;;;4.97;1.58;;;;;;;;;;5046129;28;20116;-73
2022/05/11 12:21:05;;;;;;;5.47;1.60;;;;;;;;;;5045664;28;20041;-73
2022/05/11 12:23:34;;;;;;;6.50;1.80;;;;;;;;;;5029403;28;20102;-73
2022/05/11 12:26:01;;;;;;;5.07;1.60;;;;;;;;;;5046217;28;20080;-73
2022/05/11 12:28:33;;;;;;;6.28;1.77;;;;;;;;;;5046375;28;20071;-73
2022/05/11 12:30:59;;;;;;;5.85;1.80;;;;;;;;;;5046349;28;20040;-73
2022/05/11 12:33:25;;;;;;;8.98;1.83;;;;;;;;;;5045235;28;20063;-73
2022/05/11 12:35:52;;;;;;;6.13;1.65;;;;;;;;;;5045462;28;20041;-73
2022/05/11 12:38:29;;;;;;;6.53;1.73;;;;;;;;;;5061861;28;20040;-73
2022/05/11 12:40:55;;;;;;;7.05;1.70;;;;;;;;;;5056580;28;20090;-73
2022/05/11 12:43:32;;;;;;;4.47;1.40;;;;;;;;;;5060929;28;20047;-73
2022/05/11 12:45:59;;;;;;;5.28;1.58;;;;;;;;;;5065765;28;20040;-73
2022/05/11 12:48:32;;;;;;;5.63;1.65;;;;;;;;;;5064704;28;20586;-73
2022/05/11 12:51:18;;;;;;;6.72;1.65;;;;;;;;;;5037971;28;20044;-73
2022/05/11 12:53:49;;;;;;;5.05;1.42;;;;;;;;;;5046746;28;20045;-73
2022/05/11 12:56:19;;;;;;;8.15;1.77;;;;;;;;;;5028657;28;20050;-73
2022/05/11 12:59:05;;;;;;;7.72;1.60;;;;;;;;;;5045359;28;20047;-73
2022/05/11 13:01:32;;;;;;;6.25;1.55;;;;;;;;;;5045191;28;20059;-73
2022/05/11 13:04:00;;;;;;;8.10;1.50;;;;;;;;;;5044075;28;20486;-73
2022/05/11 13:06:40;;;;;;;4.78;1.40;;;;;;;;;;5045245;28;20040;-73
2022/05/11 13:09:08;;;;;;;4.93;1.30;;;;;;;;;;5045004;28;20441;-72
2022/05/11 13:11:35;;;;;;;6.85;1.65;;;;;;;;;;5045057;28;20124;-73
2022/05/11 13:14:01;;;;;;;6.15;1.55;;;;;;;;;;5028561;28;20094;-73
2022/05/11 13:16:31;;;;;;;5.53;1.40;;;;;;;;;;5030306;28;20040;-73
2022/05/11 13:19:06;;;;;;;6.85;1.65;;;;;;;;;;5044971;28;20036;-72
2022/05/11 13:21:31;;;;;;;;;;;;;;;;;;5066181;28;20451;-72
2022/05/11 13:23:58;;;;;;;5.63;1.30;;;;;;;;;;5048240;28;19924;-73
2022/05/11 13:26:30;;;;;;;6.78;1.45;;;;;;;;;;5063956;28;20048;-72
2022/05/11 13:28:57;;;;;;;5.65;1.40;;;;;;;;;;5063682;28;20670;-73
2022/05/11 13:31:23;;;;;;;5.55;1.88;;;;;;;;;;5064471;28;20040;-73
2022/05/11 13:33:49;;;;;;;5.75;1.40;;;;;;;;;;5064101;28;20685;-72
2022/05/11 13:36:34;;;;;;;6.75;1.48;;;;;;;;;;5048722;28;20044;-72
2022/05/11 13:39:09;;;;;;;6.60;1.60;;;;;;;;;;5065107;28;20116;-72
2022/05/11 13:41:37;;;;;;;4.93;1.38;;;;;;;;;;5065279;28;20051;-73
2022/05/11 13:44:08;;;;;;;4.35;1.27;;;;;;;;;;5047829;28;20040;-73
2022/05/11 13:46:36;;;;;;;6.13;1.80;;;;;;;;;;5064863;28;20044;-73
2022/05/11 13:49:16;;;;;;;5.47;1.27;;;;;;;;;;5046961;28;20657;-73
2022/05/11 13:51:42;;;;;;;6.53;1.80;;;;;;;;;;5032341;28;20913;-73
2022/05/11 13:54:20;;;;;;;4.95;1.23;;;;;;;;;;5058319;28;20047;-73
2022/05/11 13:56:56;;;;;;;6.68;1.50;;;;;;;;;;5051997;28;20116;-73
2022/05/11 13:59:24;;;;;;;6.82;1.60;;;;;;;;;;5060372;28;20048;-73
2022/05/11 14:01:50;;;;;;;6.63;1.50;;;;;;;;;;5084609;28;20504;-73
2022/05/11 14:04:22;;;;;;;4.32;1.35;;;;;;;;;;5065947;28;20050;-73
2022/05/11 14:06:48;;;;;;;6.47;1.40;;;;;;;;;;5084530;28;20078;-73
2022/05/11 14:09:14;;;;;;;6.20;1.50;;;;;;;;;;5083713;28;20323;-73
2022/05/11 14:11:40;;;;;;;8.55;1.70;;;;;;;;;;5067191;28;20039;-73
2022/05/11 14:14:06;;;;;;;5.75;1.60;;;;;;;;;;5066127;28;20074;-73
2022/05/11 14:16:32;;;;;;;6.60;1.65;;;;;;;;;;5083993;28;20040;-72
2022/05/11 14:18:59;;;;;;;7.07;1.75;;;;;;;;;;5067215;28;20044;-72
2022/05/11 14:21:25;;;;;;;5.30;1.20;;;;;;;;;;5083869;28;20651;-72
2022/05/11 14:23:51;;;;;;;6.07;1.52;;;;;;;;;;5074096;28;20090;-73
2022/05/11 14:26:17;;;;;;;5.05;1.23;;;;;;;;;;5063140;28;20678;-73
2022/05/11 14:28:45;;;;;;;5.60;1.23;;;;;;;;;;5031331;28;20119;-72
2022/05/11 14:31:16;;;;;;;6.30;1.50;;;;;;;;;;5027315;28;20111;-72
2022/05/11 14:33:42;;;;;;;8.38;1.85;;;;;;;;;;5043266;28;20064;-72
2022/05/11 14:36:09;;;;;;;9.00;1.48;;;;;;;;;;5043520;28;20151;-72
2022/05/11 14:38:36;;;;;;;7.65;1.60;;;;;;;;;;5028350;28;20041;-72
2022/05/11 14:41:02;;;;;;;4.15;1.10;;;;;;;;;;5063990;28;20509;-72
2022/05/11 14:43:28;;;;;;;5.97;1.55;;;;;;;;;;5047098;28;20040;-72
2022/05/11 14:45:56;;;;;;;4.93;1.42;;;;;;;;;;5063462;28;20044;-72
2022/05/11 14:48:24;;;;;;;5.85;1.60;;;;;;;;;;5046713;28;20050;-72
2022/05/11 14:50:50;;;;;;;4.90;1.25;;;;;;;;;;5062983;28;20049;-72
2022/05/11 14:53:16;;;;;;;6.03;1.33;;;;;;;;;;5045176;28;20123;-72
2022/05/11 14:55:42;;;;;;;6.30;1.50;;;;;;;;;;5031830;28;20043;-72
2022/05/11 15:03:38;;;;;;;6.40;1.55;;;;;;;;;;5062232;28;20513;-72
2022/05/11 15:06:04;;;;;;;6.45;1.52;;;;;;;;;;5045848;28;20052;-72
2022/05/11 15:08:30;;;;;;;5.70;1.50;;;;;;;;;;5062994;28;20515;-73
2022/05/11 15:13:41;;;;;;;5.38;1.50;;;;;;;;;;5062128;28;20036;-72
2022/05/11 15:16:09;;;;;;;5.82;1.48;;;;;;;;;;5062087;28;20091;-73
2022/05/11 15:18:35;;;;;;;4.63;1.63;;;;;;;;;;5045826;28;20501;-72
2022/05/11 15:21:01;;;;;;;5.88;1.65;;;;;;;;;;5062340;28;20042;-72
2022/05/11 15:23:27;;;;;;;6.45;1.52;;;;;;;;;;5062922;28;20045;-72
2022/05/11 15:25:53;;;;;;;7.07;1.58;;;;;;;;;;5064705;28;20409;-73
2022/05/11 15:28:19;;;;;;;6.53;1.35;;;;;;;;;;5049623;28;20646;-72
2022/05/11 15:30:46;;;;;;;6.32;1.63;;;;;;;;;;5063363;28;20098;-72
2022/05/11 15:33:17;;;;;;;7.38;1.45;;;;;;;;;;5049737;28;20056;-72
2022/05/11 15:35:43;;;;;;;5.78;1.38;;;;;;;;;;5066640;28;20040;-72
2022/05/11 15:38:09;;;;;;;6.45;1.42;;;;;;;;;;5067060;28;20640;-72
2022/05/11 15:40:36;;;;;;;5.93;1.33;;;;;;;;;;5032139;28;20045;-72
2022/05/11 15:43:01;;;;;;;6.72;1.63;;;;;;;;;;5061045;28;20768;-72
2022/05/11 15:45:28;;;;;;;5.47;1.25;;;;;;;;;;5049412;28;20041;-72